Time;durP1;ratioP1;P1;durP2;ratioP2;P2;SDS_P1;SDS_P2;PMS_P1;PMS_P2;Temp;Humidity;BMP_temperature;BMP_pressure;BME280_temperature;BME280_humidity;BME280_pressure;Samples;Min_cycle;Max_cycle;Signal;HPM_P1;HPM_P2
2021/05/24 00:04:32;;;;;;;1.97;1.00;;;;;13.10;100434.00;;;;10510413;28;20189;-78
2021/05/24 00:09:34;;;;;;;5.10;1.63;;;;;13.10;100431.00;;;;10510786;28;20225;-78
2021/05/24 00:14:38;;;;;;;2.30;1.17;;;;;13.20;100426.00;;;;10507666;28;20608;-78
2021/05/24 00:19:40;;;;;;;1.93;0.80;;;;;13.20;100422.00;;;;10526762;28;20201;-78
2021/05/24 00:24:42;;;;;;;2.03;0.90;;;;;13.20;100419.00;;;;10465721;28;20699;-78
2021/05/24 00:29:44;;;;;;;4.47;1.10;;;;;13.20;100421.00;;;;10484100;28;20224;-78
2021/05/24 00:34:46;;;;;;;3.70;0.73;;;;;13.10;100402.00;;;;10464435;28;20217;-78
2021/05/24 00:39:55;;;;;;;3.03;0.90;;;;;13.10;100414.00;;;;10468703;28;20197;-79
2021/05/24 00:44:57;;;;;;;2.30;0.80;;;;;13.20;100401.00;;;;10467404;28;20193;-78
2021/05/24 00:49:59;;;;;;;3.17;0.90;;;;;13.20;100404.00;;;;10434045;28;20224;-78
2021/05/24 00:55:03;;;;;;;5.93;1.00;;;;;13.20;100408.00;;;;10462483;28;20206;-78
2021/05/24 01:00:25;;;;;;;3.27;1.00;;;;;13.10;100394.00;;;;10464952;28;20208;-78
2021/05/24 01:05:27;;;;;;;2.70;0.90;;;;;13.10;100391.00;;;;10465490;28;20197;-78
2021/05/24 01:10:29;;;;;;;1.83;0.90;;;;;13.10;100375.00;;;;10464067;28;20224;-78
2021/05/24 01:15:37;;;;;;;4.53;1.10;;;;;13.00;100376.00;;;;10444996;28;20832;-78
2021/05/24 01:20:41;;;;;;;2.57;0.90;;;;;13.00;100371.00;;;;10465335;28;20193;-78
2021/05/24 01:25:50;;;;;;;3.67;0.90;;;;;13.00;100356.00;;;;10502732;28;20208;-78
2021/05/24 01:30:52;;;;;;;1.97;1.20;;;;;13.00;100354.00;;;;10489824;28;20483;-78
2021/05/24 01:35:54;;;;;;;3.10;1.17;;;;;13.00;100349.00;;;;10520811;28;20936;-78
2021/05/24 01:40:56;;;;;;;2.30;0.80;;;;;13.00;100342.00;;;;10474547;28;20208;-78
2021/05/24 01:45:58;;;;;;;4.77;0.93;;;;;13.00;100335.00;;;;10506965;28;20662;-78
2021/05/24 01:51:01;;;;;;;2.13;0.87;;;;;13.10;100335.00;;;;10473846;28;20239;-78
2021/05/24 01:56:04;;;;;;;2.60;0.90;;;;;13.10;100350.00;;;;10516950;28;20661;-78
2021/05/24 02:01:09;;;;;;;3.53;0.83;;;;;13.10;100340.00;;;;10494745;28;20208;-78
2021/05/24 02:06:21;;;;;;;2.70;0.93;;;;;13.10;100345.00;;;;10515833;28;20717;-78
2021/05/24 02:11:28;;;;;;;5.23;1.20;;;;;13.00;100342.00;;;;10496871;28;20197;-78
2021/05/24 02:16:42;;;;;;;1.93;1.07;;;;;13.00;100339.00;;;;10507909;28;20759;-78
2021/05/24 02:21:44;;;;;;;4.93;1.30;;;;;13.00;100332.00;;;;10456291;28;20198;-79
2021/05/24 02:26:46;;;;;;;1.40;0.77;;;;;13.00;100335.00;;;;10446143;28;20217;-78
2021/05/24 02:31:48;;;;;;;2.73;1.37;;;;;12.90;100336.00;;;;10453204;28;20263;-78
2021/05/24 02:36:50;;;;;;;3.17;0.80;;;;;12.90;100339.00;;;;10504796;28;20208;-78
2021/05/24 02:41:52;;;;;;;4.00;1.30;;;;;12.90;100341.00;;;;10455986;28;20201;-78
2021/05/24 02:46:54;;;;;;;5.57;1.20;;;;;12.90;100316.00;;;;10506571;28;20217;-78
2021/05/24 02:51:55;;;;;;;2.27;0.77;;;;;12.80;100325.00;;;;10512453;28;20203;-78
2021/05/24 02:56:58;;;;;;;2.00;0.70;;;;;12.80;100310.00;;;;10509963;28;20670;-78
2021/05/24 03:02:06;;;;;;;2.17;0.90;;;;;12.80;100308.00;;;;10513333;28;20605;-78
2021/05/24 03:07:08;;;;;;;2.57;0.87;;;;;12.80;100330.00;;;;10496334;28;20273;-78
2021/05/24 03:12:10;;;;;;;0.90;0.73;;;;;12.80;100321.00;;;;10542465;28;20189;-78
2021/05/24 03:17:11;;;;;;;2.30;0.67;;;;;12.70;100341.00;;;;10508562;28;20197;-78
2021/05/24 03:22:13;;;;;;;3.03;1.00;;;;;12.60;100323.00;;;;10512009;28;20188;-78
2021/05/24 03:27:15;;;;;;;1.43;0.80;;;;;12.50;100316.00;;;;10478298;28;20217;-78
2021/05/24 03:32:18;;;;;;;1.03;0.47;;;;;12.50;100314.00;;;;10469494;28;20596;-79
2021/05/24 03:37:19;;;;;;;1.93;0.50;;;;;12.50;100309.00;;;;10463449;28;20256;-78
2021/05/24 03:42:22;;;;;;;3.23;0.67;;;;;12.50;100298.00;;;;10469238;28;20202;-79
2021/05/24 03:47:24;;;;;;;0.50;0.50;;;;;12.30;100305.00;;;;10452711;28;20214;-78
2021/05/24 03:52:26;;;;;;;0.50;0.50;;;;;12.10;100315.00;;;;10468557;28;20617;-78
2021/05/24 03:57:27;;;;;;;0.60;0.60;;;;;11.70;100322.00;;;;10496109;28;20210;-78
2021/05/24 04:02:30;;;;;;;1.57;0.60;;;;;11.60;100295.00;;;;10508971;28;20204;-78
2021/05/24 04:07:32;;;;;;;1.17;0.43;;;;;11.50;100313.00;;;;10492327;28;20253;-78
2021/05/24 04:12:34;;;;;;;2.07;0.50;;;;;11.40;100320.00;;;;10509413;28;20201;-78
2021/05/24 04:17:38;;;;;;;2.50;0.60;;;;;11.40;100319.00;;;;10491177;28;20245;-78
2021/05/24 04:22:41;;;;;;;1.67;0.80;;;;;11.20;100315.00;;;;10491318;28;20197;-78
2021/05/24 04:27:43;;;;;;;1.17;0.50;;;;;11.00;100313.00;;;;10491707;28;20270;-78
2021/05/24 04:32:45;;;;;;;1.23;0.60;;;;;10.90;100320.00;;;;10508625;28;20744;-78
2021/05/24 04:37:46;;;;;;;0.87;0.60;;;;;10.80;100319.00;;;;10523671;28;20200;-78
2021/05/24 04:42:49;;;;;;;2.93;0.70;;;;;10.80;100313.00;;;;10504169;28;20204;-78
2021/05/24 04:47:51;;;;;;;1.07;0.83;;;;;10.80;100309.00;;;;10491585;28;20220;-78
2021/05/24 04:52:53;;;;;;;1.17;0.60;;;;;10.90;100325.00;;;;10526102;28;20197;-78
2021/05/24 04:57:54;;;;;;;2.37;0.80;;;;;10.90;100315.00;;;;10524042;28;20208;-78
2021/05/24 05:02:56;;;;;;;0.70;0.50;;;;;10.90;100309.00;;;;10463135;28;20213;-78
2021/05/24 05:07:58;;;;;;;1.80;0.70;;;;;10.90;100314.00;;;;10481699;28;20610;-78
2021/05/24 05:13:00;;;;;;;1.00;0.90;;;;;10.90;100312.00;;;;10449040;28;20251;-78
2021/05/24 05:18:02;;;;;;;2.67;0.80;;;;;11.00;100313.00;;;;10480940;28;20201;-78
2021/05/24 05:23:04;;;;;;;3.03;0.73;;;;;11.00;100306.00;;;;10494965;28;20205;-78
2021/05/24 05:28:07;;;;;;;1.60;0.70;;;;;11.10;100309.00;;;;10464203;28;20283;-78
2021/05/24 05:33:09;;;;;;;5.13;0.80;;;;;11.20;100311.00;;;;10458100;28;20217;-78
2021/05/24 05:38:11;;;;;;;2.20;0.80;;;;;11.30;100314.00;;;;10469834;28;20201;-78
2021/05/24 05:43:12;;;;;;;3.27;1.10;;;;;11.40;100304.00;;;;10453881;28;20210;-78
2021/05/24 05:48:15;;;;;;;1.57;0.80;;;;;11.50;100313.00;;;;10489152;28;20218;-78
2021/05/24 05:53:17;;;;;;;1.67;1.00;;;;;11.40;100312.00;;;;10454949;28;20223;-78
2021/05/24 05:58:19;;;;;;;1.37;0.80;;;;;11.40;100303.00;;;;10470363;28;20235;-78
2021/05/24 06:03:21;;;;;;;1.30;0.70;;;;;11.40;100316.00;;;;10433667;28;20250;-78
2021/05/24 06:08:23;;;;;;;2.83;0.90;;;;;11.70;100318.00;;;;10467423;28;20270;-78
2021/05/24 06:13:26;;;;;;;1.77;0.73;;;;;12.10;100303.00;;;;10502360;28;20201;-78
2021/05/24 06:18:28;;;;;;;2.13;1.13;;;;;11.90;100313.00;;;;10503261;28;20262;-78
2021/05/24 06:23:30;;;;;;;1.93;0.60;;;;;11.70;100321.00;;;;10470872;28;20193;-78
2021/05/24 06:28:32;;;;;;;1.67;0.90;;;;;11.40;100324.00;;;;10508814;28;20286;-78
2021/05/24 06:33:34;;;;;;;2.23;0.80;;;;;11.40;100324.00;;;;10510705;28;20571;-78
2021/05/24 06:38:35;;;;;;;2.27;0.83;;;;;11.60;100320.00;;;;10512289;28;20256;-78
2021/05/24 06:43:38;;;;;;;1.77;0.80;;;;;11.60;100326.00;;;;10496573;28;20706;-78
2021/05/24 06:48:41;;;;;;;1.87;0.70;;;;;11.60;100325.00;;;;10506599;28;20213;-78
2021/05/24 06:53:43;;;;;;;0.97;0.73;;;;;11.50;100315.00;;;;10525892;28;20193;-78
2021/05/24 06:58:44;;;;;;;3.37;1.00;;;;;11.50;100316.00;;;;10491191;28;20258;-78
2021/05/24 07:03:46;;;;;;;4.53;1.70;;;;;11.60;100302.00;;;;10525103;28;20189;-78
2021/05/24 07:08:48;;;;;;;3.87;1.40;;;;;11.90;100308.00;;;;10466451;28;20214;-78
2021/05/24 07:13:51;;;;;;;2.03;1.07;;;;;11.80;100314.00;;;;10444747;28;20212;-78
2021/05/24 07:18:52;;;;;;;6.50;1.43;;;;;11.70;100312.00;;;;10522251;28;20200;-77
2021/05/24 07:23:54;;;;;;;4.63;1.10;;;;;11.60;100301.00;;;;10453549;28;20952;-78
2021/05/24 07:28:59;;;;;;;3.57;1.03;;;;;11.50;100299.00;;;;10483797;28;20272;-78
2021/05/24 07:34:05;;;;;;;3.10;1.13;;;;;11.60;100305.00;;;;10495852;28;20251;-78
2021/05/24 07:39:07;;;;;;;4.80;1.90;;;;;11.60;100294.00;;;;10522091;28;20196;-78
2021/05/24 07:44:09;;;;;;;2.57;1.30;;;;;11.60;100295.00;;;;10461812;28;20228;-78
2021/05/24 07:49:17;;;;;;;2.23;1.20;;;;;11.80;100284.00;;;;10469835;28;20589;-78
2021/05/24 07:54:23;;;;;;;1.50;1.00;;;;;11.90;100280.00;;;;10472070;28;20247;-78
2021/05/24 07:59:25;;;;;;;1.80;1.20;;;;;12.00;100288.00;;;;10515335;28;20258;-78
2021/05/24 08:04:27;;;;;;;2.07;1.43;;;;;12.30;100277.00;;;;10494521;28;20190;-78
2021/05/24 08:09:29;;;;;;;2.50;1.00;;;;;12.50;100276.00;;;;10467717;28;20237;-78
2021/05/24 08:14:31;;;;;;;1.80;1.03;;;;;12.70;100265.00;;;;10510826;28;20667;-78
2021/05/24 08:19:32;;;;;;;3.00;1.23;;;;;12.90;100264.00;;;;10514962;28;20208;-78
2021/05/24 08:24:34;;;;;;;1.07;0.90;;;;;12.80;100262.00;;;;10498568;28;20208;-77
2021/05/24 08:29:36;;;;;;;1.80;0.90;;;;;12.70;100262.00;;;;10487892;28;20224;-77
2021/05/24 08:34:38;;;;;;;1.37;0.90;;;;;12.70;100268.00;;;;10499275;28;20220;-78
2021/05/24 08:39:43;;;;;;;2.00;0.90;;;;;12.80;100262.00;;;;10468323;28;20205;-79
2021/05/24 08:44:47;;;;;;;1.57;1.00;;;;;13.00;100265.00;;;;10520223;28;20206;-79
2021/05/24 08:49:50;;;;;;;2.60;0.97;;;;;13.20;100271.00;;;;10487515;28;20220;-79
2021/05/24 08:54:52;;;;;;;3.13;1.07;;;;;13.60;100272.00;;;;10489629;28;20250;-78
2021/05/24 08:59:58;;;;;;;1.37;1.13;;;;;13.90;100269.00;;;;10486236;28;20201;-78
2021/05/24 09:05:05;;;;;;;1.20;1.00;;;;;13.70;100266.00;;;;10480636;28;20668;-77
2021/05/24 09:10:09;;;;;;;1.70;1.60;;;;;13.80;100281.00;;;;10484283;28;20691;-77
2021/05/24 09:15:14;;;;;;;1.23;0.90;;;;;13.80;100277.00;;;;10513148;28;20231;-77
2021/05/24 09:20:19;;;;;;;2.40;1.20;;;;;13.90;100276.00;;;;10500640;28;20237;-77
2021/05/24 09:25:44;;;;;;;2.30;1.00;;;;;14.60;100272.00;;;;10456343;28;20246;-77
2021/05/24 09:31:22;;;;;;;3.17;1.47;;;;;16.60;100255.00;;;;10490171;28;20220;-77
2021/05/24 09:36:25;;;;;;;2.33;0.80;;;;;16.80;100266.00;;;;10465737;28;20205;-77
2021/05/24 09:41:27;;;;;;;1.90;0.80;;;;;16.50;100264.00;;;;10491500;28;20205;-77
2021/05/24 09:46:29;;;;;;;1.67;0.97;;;;;16.50;100258.00;;;;10428736;28;20206;-77
2021/05/24 09:51:37;;;;;;;2.13;0.90;;;;;16.40;100258.00;;;;10466332;28;20252;-77
2021/05/24 09:56:47;;;;;;;1.30;0.80;;;;;16.00;100261.00;;;;10489204;28;20206;-77
2021/05/24 10:01:56;;;;;;;2.27;0.73;;;;;16.00;100260.00;;;;10460947;28;20680;-77
2021/05/24 10:07:02;;;;;;;1.20;1.00;;;;;16.90;100250.00;;;;10448879;28;20202;-77
2021/05/24 10:12:16;;;;;;;1.73;1.23;;;;;17.60;100247.00;;;;10489866;28;20590;-77
2021/05/24 10:17:20;;;;;;;0.77;0.77;;;;;17.90;100235.00;;;;10496298;28;20204;-77
2021/05/24 10:22:23;;;;;;;0.93;0.90;;;;;18.00;100231.00;;;;10460270;28;20598;-77
2021/05/24 10:27:26;;;;;;;4.60;1.30;;;;;18.20;100229.00;;;;10491682;28;20890;-77
2021/05/24 10:32:29;;;;;;;1.40;0.90;;;;;18.70;100229.00;;;;10504510;28;20259;-77
2021/05/24 10:37:39;;;;;;;1.10;1.00;;;;;18.60;100227.00;;;;10500346;28;20197;-77
2021/05/24 10:42:44;;;;;;;1.05;0.90;;;;;18.30;100216.00;;;;10499532;28;20831;-77
2021/05/24 10:47:55;;;;;;;1.50;0.90;;;;;17.20;100226.00;;;;10446335;28;20197;-77
2021/05/24 10:53:04;;;;;;;1.10;0.90;;;;;17.00;100215.00;;;;10481723;28;20250;-78
2021/05/24 10:58:09;;;;;;;1.60;1.20;;;;;17.70;100227.00;;;;10474747;28;20258;-77
2021/05/24 11:03:11;;;;;;;0.93;0.80;;;;;16.80;100222.00;;;;10537151;28;20325;-77
2021/05/24 11:08:24;;;;;;;1.17;0.73;;;;;17.10;100229.00;;;;10484542;28;20217;-77
2021/05/24 11:13:27;;;;;;;1.87;1.00;;;;;17.90;100224.00;;;;10487642;28;20243;-77
2021/05/24 11:18:28;;;;;;;1.33;0.80;;;;;17.80;100215.00;;;;10491345;28;20540;-77
2021/05/24 11:23:37;;;;;;;1.45;0.93;;;;;19.50;100199.00;;;;10480116;28;20197;-77
2021/05/24 11:28:48;;;;;;;1.85;1.20;;;;;21.50;100196.00;;;;10487614;28;20276;-77
2021/05/24 11:33:55;;;;;;;1.70;0.93;;;;;21.20;100205.00;;;;10478629;28;20226;-77
2021/05/24 11:39:09;;;;;;;0.70;0.70;;;;;19.90;100191.00;;;;10467968;28;20255;-77
2021/05/24 11:44:12;;;;;;;1.25;0.80;;;;;18.70;100198.00;;;;10494527;28;20216;-77
2021/05/24 11:49:16;;;;;;;1.42;0.95;;;;;19.60;100184.00;;;;10487642;28;20707;-77
2021/05/24 11:54:20;;;;;;;4.75;1.13;;;;;20.00;100181.00;;;;10483832;28;20203;-76
2021/05/24 11:59:24;;;;;;;1.48;1.17;;;;;20.80;100175.00;;;;10508713;28;20197;-77
2021/05/24 12:04:33;;;;;;;1.65;0.90;;;;;20.90;100161.00;;;;10494639;28;20695;-77
2021/05/24 12:09:55;;;;;;;1.48;1.25;;;;;19.90;100155.00;;;;10518184;28;20252;-77
2021/05/24 12:15:04;;;;;;;2.40;1.25;;;;;19.20;100177.00;;;;10519380;28;20196;-77
2021/05/24 12:20:09;;;;;;;1.38;1.00;;;;;19.40;100158.00;;;;10527722;28;20287;-77
2021/05/24 12:25:13;;;;;;;1.42;1.25;;;;;19.80;100160.00;;;;10519311;28;20220;-77
2021/05/24 12:30:16;;;;;;;3.50;1.17;;;;;20.20;100151.00;;;;10496329;28;20213;-77
2021/05/24 12:35:28;;;;;;;3.92;1.23;;;;;20.30;100137.00;;;;10446723;28;20218;-77
2021/05/24 12:40:30;;;;;;;2.15;1.20;;;;;19.90;100140.00;;;;10487925;28;20243;-77
2021/05/24 12:45:32;;;;;;;2.70;1.00;;;;;20.70;100125.00;;;;10495869;28;20786;-77
2021/05/24 12:50:43;;;;;;;2.95;1.20;;;;;21.60;100127.00;;;;10501228;28;20221;-77
2021/05/24 12:55:47;;;;;;;4.22;1.40;;;;;21.30;100127.00;;;;10507703;28;20231;-77
2021/05/24 13:00:55;;;;;;;1.92;1.02;;;;;20.20;100131.00;;;;10501667;28;20858;-78
2021/05/24 13:06:03;;;;;;;1.58;0.98;;;;;21.10;100112.00;;;;10477304;28;20201;-77
2021/05/24 13:11:06;;;;;;;1.77;1.00;;;;;22.10;100112.00;;;;10488855;28;20228;-77
2021/05/24 13:22:47;;;;;;;4.47;1.60;;;;;25.20;100083.00;;;;10496972;28;20193;-77
2021/05/24 13:32:46;;;;;;;1.20;1.10;;;;;26.50;100074.00;;;;10434254;28;20696;-76
2021/05/24 13:37:48;;;;;;;2.50;1.33;;;;;27.40;100062.00;;;;10491245;28;20196;-77
2021/05/24 13:42:51;;;;;;;2.90;1.42;;;;;26.00;100066.00;;;;10505186;28;20579;-77
2021/05/24 13:47:53;;;;;;;3.20;1.23;;;;;28.50;100042.00;;;;10491255;28;20219;-76
2021/05/24 13:52:55;;;;;;;5.30;1.10;;;;;30.10;100036.00;;;;10477106;28;20281;-77
2021/05/24 13:57:57;;;;;;;3.50;1.23;;;;;28.80;100044.00;;;;10491434;28;20605;-76
2021/05/24 14:03:01;;;;;;;2.55;0.98;;;;;28.80;100042.00;;;;10505338;28;20205;-77
2021/05/24 14:08:03;;;;;;;2.72;1.00;;;;;26.40;100042.00;;;;10471187;28;20198;-77
2021/05/24 14:13:05;;;;;;;1.85;1.02;;;;;31.10;100033.00;;;;10475765;28;20228;-77
2021/05/24 14:18:07;;;;;;;1.48;1.02;;;;;29.00;100020.00;;;;10507414;28;20197;-77
2021/05/24 14:23:09;;;;;;;2.95;1.20;;;;;31.90;100022.00;;;;10521453;28;20228;-78
2021/05/24 14:28:11;;;;;;;3.60;1.38;;;;;29.60;100024.00;;;;10489057;28;20240;-78
2021/05/24 14:33:13;;;;;;;1.75;0.98;;;;;23.80;100028.00;;;;10480590;28;20621;-77
2021/05/24 14:38:15;;;;;;;1.42;1.00;;;;;28.10;100032.00;;;;10490230;28;20239;-77
2021/05/24 14:43:17;;;;;;;3.25;1.00;;;;;22.80;100024.00;;;;10471012;28;20621;-77
2021/05/24 14:48:18;;;;;;;3.17;1.10;;;;;21.00;100031.00;;;;10497669;28;20225;-77
2021/05/24 14:53:23;;;;;;;2.75;1.10;;;;;20.20;100029.00;;;;10459051;28;20214;-76
2021/05/24 14:58:26;;;;;;;3.25;1.58;;;;;19.80;100039.00;;;;10441819;28;20525;-77
2021/05/24 15:03:30;;;;;;;3.47;1.35;;;;;19.10;100034.00;;;;10498212;28;20815;-77
2021/05/24 15:08:31;;;;;;;2.58;1.25;;;;;17.90;100051.00;;;;10472092;28;20267;-77
2021/05/24 15:13:33;;;;;;;2.40;1.10;;;;;17.30;100056.00;;;;10457602;28;20672;-76
2021/05/24 15:18:35;;;;;;;4.47;1.50;;;;;16.20;100100.00;;;;10515323;28;20231;-77
2021/05/24 15:23:37;;;;;;;3.90;1.50;;;;;14.50;100111.00;;;;10529201;28;20197;-77
2021/05/24 15:28:42;;;;;;;4.23;1.70;;;;;13.80;100114.00;;;;10460262;28;20235;-76
2021/05/24 15:33:47;;;;;;;5.13;1.70;;;;;13.90;100132.00;;;;10499523;28;20228;-77
2021/05/24 15:38:50;;;;;;;2.93;1.97;;;;;13.50;100135.00;;;;10499248;28;20678;-77
2021/05/24 15:43:53;;;;;;;3.87;2.00;;;;;13.50;100140.00;;;;10497509;28;20193;-77
2021/05/24 15:48:55;;;;;;;4.33;1.70;;;;;13.40;100149.00;;;;10498772;28;20217;-77
2021/05/24 15:53:56;;;;;;;3.53;1.90;;;;;13.30;100147.00;;;;10494173;28;20227;-77
2021/05/24 15:58:58;;;;;;;5.63;1.53;;;;;12.80;100155.00;;;;10438131;28;20264;-77
2021/05/24 16:04:01;;;;;;;2.77;1.50;;;;;12.40;100128.00;;;;10491888;28;20201;-77
2021/05/24 16:09:06;;;;;;;1.60;1.27;;;;;12.30;100122.00;;;;10462601;28;20213;-76
2021/05/24 16:14:09;;;;;;;2.90;1.60;;;;;12.70;100154.00;;;;10479174;28;20231;-75
2021/05/24 16:19:11;;;;;;;3.90;1.53;;;;;12.50;100152.00;;;;10455233;28;20205;-76
2021/05/24 16:29:30;;;;;;;2.97;1.70;;;;;12.10;100174.00;;;;10437313;28;20233;-76
2021/05/24 16:34:32;;;;;;;1.63;1.40;;;;;11.80;100190.00;;;;10470256;28;20293;-77
2021/05/24 16:39:34;;;;;;;2.23;0.80;;;;;11.30;100186.00;;;;10463998;28;20609;-78
2021/05/24 16:44:35;;;;;;;2.80;1.40;;;;;10.70;100168.00;;;;10465607;28;20658;-77
2021/05/24 16:49:37;;;;;;;4.33;1.50;;;;;10.60;100148.00;;;;10530038;28;20259;-77
2021/05/24 16:54:39;;;;;;;2.20;1.10;;;;;10.60;100167.00;;;;10471614;28;20214;-77
2021/05/24 16:59:42;;;;;;;2.63;1.50;;;;;10.70;100173.00;;;;10454887;28;20197;-76
2021/05/24 17:04:43;;;;;;;1.50;1.10;;;;;10.80;100178.00;;;;10469177;28;20197;-77
2021/05/24 17:09:46;;;;;;;4.47;1.60;;;;;10.80;100182.00;;;;10496021;28;20271;-77
2021/05/24 17:14:48;;;;;;;1.77;1.10;;;;;10.80;100178.00;;;;10467430;28;20208;-77
2021/05/24 17:19:50;;;;;;;1.93;1.00;;;;;10.90;100172.00;;;;10468918;28;20208;-77
2021/05/24 17:24:52;;;;;;;1.30;0.83;;;;;10.80;100160.00;;;;10501926;28;20204;-77
2021/05/24 17:29:54;;;;;;;1.97;1.17;;;;;10.70;100174.00;;;;10497598;28;20224;-77
2021/05/24 17:34:56;;;;;;;1.93;1.00;;;;;10.70;100178.00;;;;10469920;28;20225;-77
2021/05/24 17:39:58;;;;;;;0.93;0.80;;;;;10.80;100174.00;;;;10458450;28;20209;-77
2021/05/24 17:45:00;;;;;;;3.57;1.10;;;;;10.60;100161.00;;;;10491443;28;20189;-77
2021/05/24 17:50:09;;;;;;;2.93;1.30;;;;;10.50;100168.00;;;;10493218;28;21137;-78
2021/05/24 17:55:12;;;;;;;6.03;1.53;;;;;10.40;100165.00;;;;10508650;28;20728;-78
2021/05/24 18:00:15;;;;;;;2.47;1.43;;;;;10.50;100164.00;;;;10508337;28;20201;-76
2021/05/24 18:05:21;;;;;;;7.30;2.07;;;;;10.70;100166.00;;;;10507486;28;20197;-77
2021/05/24 18:10:23;;;;;;;5.20;1.83;;;;;10.80;100170.00;;;;10503021;28;20225;-77
2021/05/24 18:15:27;;;;;;;3.60;2.00;;;;;10.80;100163.00;;;;10491975;28;20683;-77
2021/05/24 18:20:31;;;;;;;2.00;1.73;;;;;10.60;100167.00;;;;10509180;28;20200;-78
2021/05/24 18:25:34;;;;;;;3.33;1.97;;;;;10.60;100158.00;;;;10476512;28;20594;-78
2021/05/24 18:30:37;;;;;;;3.67;2.17;;;;;10.60;100160.00;;;;10432117;28;20728;-78
2021/05/24 18:35:41;;;;;;;3.70;1.97;;;;;10.80;100176.00;;;;10431089;28;20232;-78
2021/05/24 18:40:50;;;;;;;4.27;1.90;;;;;10.60;100177.00;;;;10451975;28;20223;-78
2021/05/24 18:45:53;;;;;;;5.53;2.10;;;;;10.40;100191.00;;;;10407212;28;20202;-78
2021/05/24 18:50:55;;;;;;;3.47;2.03;;;;;10.30;100190.00;;;;10443506;28;20401;-77
2021/05/24 18:55:57;;;;;;;4.60;2.10;;;;;10.20;100189.00;;;;10503365;28;20204;-77
2021/05/24 19:01:01;;;;;;;4.47;1.90;;;;;10.20;100181.00;;;;10523871;28;20566;-78
2021/05/24 19:06:14;;;;;;;3.87;1.83;;;;;10.10;100194.00;;;;10491196;28;20196;-78
2021/05/24 19:11:18;;;;;;;6.93;2.00;;;;;10.00;100216.00;;;;10504711;28;20239;-78
2021/05/24 19:16:24;;;;;;;3.50;2.17;;;;;10.00;100216.00;;;;10523284;28;20193;-78
2021/05/24 19:21:26;;;;;;;4.50;2.53;;;;;9.80;100207.00;;;;10506390;28;20203;-77
2021/05/24 19:26:30;;;;;;;4.07;2.57;;;;;9.70;100218.00;;;;10504564;28;20205;-77
2021/05/24 19:31:33;;;;;;;4.83;2.87;;;;;9.50;100226.00;;;;10498864;28;20632;-77
2021/05/24 19:36:37;;;;;;;4.87;2.13;;;;;9.30;100240.00;;;;10520085;28;20199;-77
2021/05/24 19:41:39;;;;;;;5.07;2.90;;;;;9.20;100249.00;;;;10502559;28;20207;-77
2021/05/24 19:46:44;;;;;;;4.57;2.60;;;;;9.10;100252.00;;;;10452769;28;20247;-77
2021/05/24 20:07:03;;;;;;;5.57;2.83;;;;;9.10;100248.00;;;;10495047;28;20571;-77
2021/05/24 20:29:00;;;;;;;1.40;1.10;;;;;8.90;100283.00;;;;10504238;28;20205;-78
2021/05/24 20:34:04;;;;;;;2.67;1.50;;;;;8.80;100284.00;;;;10486885;28;20269;-78
2021/05/24 20:39:08;;;;;;;2.53;1.60;;;;;8.70;100287.00;;;;10501533;28;20205;-78
2021/05/24 20:44:10;;;;;;;1.80;1.40;;;;;8.70;100285.00;;;;10494218;28;20189;-78
2021/05/24 20:49:12;;;;;;;4.10;1.20;;;;;8.60;100297.00;;;;10497259;28;20204;-78
2021/05/24 20:54:15;;;;;;;1.63;1.00;;;;;8.60;100303.00;;;;10486568;28;20246;-78
2021/05/24 20:59:17;;;;;;;1.63;1.10;;;;;8.50;100298.00;;;;10501026;28;20198;-78
2021/05/24 21:04:20;;;;;;;2.03;1.10;;;;;8.50;100303.00;;;;10501572;28;20193;-77
2021/05/24 21:09:22;;;;;;;2.47;0.80;;;;;8.40;100315.00;;;;10500811;28;20556;-77
2021/05/24 21:14:23;;;;;;;0.97;0.87;;;;;8.30;100316.00;;;;10500389;28;20219;-77
2021/05/24 21:19:26;;;;;;;1.93;0.90;;;;;8.20;100320.00;;;;10445199;28;20561;-77
2021/05/24 21:24:28;;;;;;;3.27;0.90;;;;;8.20;100317.00;;;;10409422;28;20205;-77
2021/05/24 21:29:29;;;;;;;1.57;1.10;;;;;8.10;100316.00;;;;10477313;28;20209;-77
2021/05/24 21:39:52;;;;;;;3.10;2.07;;;;;8.00;100318.00;;;;10460073;28;20197;-77
2021/05/24 21:44:53;;;;;;;7.67;4.80;;;;;7.90;100313.00;;;;10472734;28;20765;-77
2021/05/24 21:49:55;;;;;;;9.30;4.37;;;;;7.80;100326.00;;;;10499433;28;20238;-77
2021/05/24 21:54:57;;;;;;;9.07;4.07;;;;;7.70;100316.00;;;;10470688;28;20201;-77
2021/05/24 21:59:59;;;;;;;6.87;3.63;;;;;7.70;100316.00;;;;10503546;28;20598;-77
2021/05/24 22:05:01;;;;;;;6.97;3.97;;;;;7.70;100330.00;;;;10499284;28;20288;-77
2021/05/24 22:10:08;;;;;;;7.57;3.90;;;;;7.70;100334.00;;;;10531621;28;20537;-77
2021/05/24 22:15:10;;;;;;;8.67;3.93;;;;;7.60;100338.00;;;;10481547;28;20200;-77
2021/05/24 22:20:13;;;;;;;8.60;3.60;;;;;7.50;100334.00;;;;10460919;28;20205;-77
2021/05/24 22:25:15;;;;;;;6.13;3.40;;;;;7.50;100335.00;;;;10494873;28;20912;-77
2021/05/24 22:30:23;;;;;;;8.37;3.57;;;;;7.50;100335.00;;;;10521026;28;20605;-77
2021/05/24 22:35:26;;;;;;;5.70;2.77;;;;;7.60;100336.00;;;;10490132;28;20226;-77
2021/05/24 22:40:28;;;;;;;3.37;2.20;;;;;7.80;100324.00;;;;10463374;28;20205;-77
2021/05/24 22:45:30;;;;;;;4.57;2.07;;;;;7.80;100314.00;;;;10433576;28;20235;-78
2021/05/24 22:50:32;;;;;;;3.73;2.00;;;;;7.70;100334.00;;;;10459905;28;20282;-78
2021/05/24 22:55:34;;;;;;;2.93;1.73;;;;;7.60;100342.00;;;;10504199;28;20201;-77
2021/05/24 23:00:36;;;;;;;3.57;2.23;;;;;7.40;100340.00;;;;10500990;28;20205;-77
2021/05/24 23:05:42;;;;;;;3.97;2.47;;;;;7.30;100334.00;;;;10465112;28;20290;-78
2021/05/24 23:10:44;;;;;;;7.00;2.80;;;;;7.20;100340.00;;;;10519887;28;20216;-77
2021/05/24 23:15:46;;;;;;;7.93;3.37;;;;;7.10;100338.00;;;;10488470;28;20938;-77
2021/05/24 23:20:48;;;;;;;7.37;3.03;;;;;7.00;100346.00;;;;10520201;28;20197;-77
2021/05/24 23:25:52;;;;;;;9.60;4.37;;;;;7.00;100340.00;;;;10507063;28;20193;-78
2021/05/24 23:30:53;;;;;;;8.83;4.00;;;;;7.00;100340.00;;;;10520778;28;20217;-77
2021/05/24 23:35:55;;;;;;;9.20;4.07;;;;;7.00;100347.00;;;;10462510;28;20224;-77
2021/05/24 23:40:57;;;;;;;5.83;3.57;;;;;7.00;100354.00;;;;10479078;28;20204;-77
2021/05/24 23:45:59;;;;;;;11.13;4.07;;;;;6.90;100348.00;;;;10440851;28;20728;-77
2021/05/24 23:51:01;;;;;;;6.37;3.73;;;;;7.00;100365.00;;;;10478707;28;20549;-77
2021/05/24 23:56:03;;;;;;;5.57;3.37;;;;;7.10;100354.00;;;;10484021;28;20227;-77
